sensor_id;sensor_type;location;lat;lon;timestamp;P1;durP1;ratioP1;P2;durP2;ratioP2
2019;SDS011;1014;51.960;8.542;2023-11-18T00:00:51;74.90;;;48.50;;
2019;SDS011;1014;51.960;8.542;2023-11-18T00:03:19;82.43;;;48.05;;
2019;SDS011;1014;51.960;8.542;2023-11-18T00:05:46;83.00;;;48.75;;
2019;SDS011;1014;51.960;8.542;2023-11-18T00:08:14;78.90;;;50.42;;
2019;SDS011;1014;51.960;8.542;2023-11-18T00:10:41;84.43;;;47.28;;
2019;SDS011;1014;51.960;8.542;2023-11-18T00:13:09;92.90;;;49.38;;
2019;SDS011;1014;51.960;8.542;2023-11-18T00:15:36;89.63;;;48.95;;
2019;SDS011;1014;51.960;8.542;2023-11-18T00:18:03;93.55;;;49.05;;
2019;SDS011;1014;51.960;8.542;2023-11-18T00:20:31;83.43;;;48.90;;
2019;SDS011;1014;51.960;8.542;2023-11-18T00:23:00;78.35;;;48.72;;
2019;SDS011;1014;51.960;8.542;2023-11-18T00:25:29;90.43;;;49.00;;
2019;SDS011;1014;51.960;8.542;2023-11-18T00:28:00;96.37;;;50.97;;
2019;SDS011;1014;51.960;8.542;2023-11-18T00:30:27;95.10;;;48.65;;
2019;SDS011;1014;51.960;8.542;2023-11-18T00:32:54;82.00;;;46.83;;
2019;SDS011;1014;51.960;8.542;2023-11-18T00:35:21;93.20;;;47.92;;
2019;SDS011;1014;51.960;8.542;2023-11-18T00:37:49;101.30;;;49.20;;
2019;SDS011;1014;51.960;8.542;2023-11-18T00:40:16;82.20;;;49.03;;
2019;SDS011;1014;51.960;8.542;2023-11-18T00:42:44;88.10;;;49.40;;
2019;SDS011;1014;51.960;8.542;2023-11-18T00:45:11;86.88;;;49.25;;
2019;SDS011;1014;51.960;8.542;2023-11-18T00:47:38;99.00;;;48.63;;
2019;SDS011;1014;51.960;8.542;2023-11-18T00:50:06;85.65;;;48.55;;
2019;SDS011;1014;51.960;8.542;2023-11-18T00:52:34;102.47;;;49.37;;
2019;SDS011;1014;51.960;8.542;2023-11-18T00:55:05;106.53;;;55.00;;
2019;SDS011;1014;51.960;8.542;2023-11-18T00:57:33;99.90;;;51.90;;
2019;SDS011;1014;51.960;8.542;2023-11-18T01:00:01;103.80;;;48.97;;
2019;SDS011;1014;51.960;8.542;2023-11-18T01:02:29;108.65;;;53.53;;
2019;SDS011;1014;51.960;8.542;2023-11-18T01:04:56;103.65;;;51.45;;
2019;SDS011;1014;51.960;8.542;2023-11-18T01:07:23;108.22;;;54.13;;
2019;SDS011;1014;51.960;8.542;2023-11-18T01:09:50;106.83;;;52.20;;
2019;SDS011;1014;51.960;8.542;2023-11-18T01:12:18;91.20;;;48.42;;
2019;SDS011;1014;51.960;8.542;2023-11-18T01:14:45;111.47;;;53.60;;
2019;SDS011;1014;51.960;8.542;2023-11-18T01:17:12;112.93;;;53.88;;
2019;SDS011;1014;51.960;8.542;2023-11-18T01:19:40;103.15;;;49.63;;
2019;SDS011;1014;51.960;8.542;2023-11-18T01:22:07;102.13;;;48.30;;
2019;SDS011;1014;51.960;8.542;2023-11-18T01:24:36;122.75;;;50.38;;
2019;SDS011;1014;51.960;8.542;2023-11-18T01:27:03;113.35;;;48.88;;
2019;SDS011;1014;51.960;8.542;2023-11-18T01:29:34;107.53;;;50.42;;
2019;SDS011;1014;51.960;8.542;2023-11-18T01:32:01;92.35;;;48.78;;
2019;SDS011;1014;51.960;8.542;2023-11-18T01:34:33;112.43;;;47.28;;
2019;SDS011;1014;51.960;8.542;2023-11-18T01:37:01;94.70;;;47.67;;
2019;SDS011;1014;51.960;8.542;2023-11-18T01:39:29;91.43;;;47.90;;
2019;SDS011;1014;51.960;8.542;2023-11-18T01:41:57;91.68;;;46.92;;
2019;SDS011;1014;51.960;8.542;2023-11-18T01:44:24;90.35;;;47.35;;
2019;SDS011;1014;51.960;8.542;2023-11-18T01:46:54;85.15;;;45.15;;
2019;SDS011;1014;51.960;8.542;2023-11-18T01:49:22;67.75;;;41.45;;
2019;SDS011;1014;51.960;8.542;2023-11-18T01:51:50;73.55;;;42.38;;
2019;SDS011;1014;51.960;8.542;2023-11-18T01:54:17;58.65;;;40.90;;
2019;SDS011;1014;51.960;8.542;2023-11-18T01:56:45;65.57;;;41.80;;
2019;SDS011;1014;51.960;8.542;2023-11-18T01:59:13;60.97;;;43.65;;
2019;SDS011;1014;51.960;8.542;2023-11-18T02:01:43;67.50;;;42.45;;
2019;SDS011;1014;51.960;8.542;2023-11-18T02:04:12;75.97;;;45.40;;
2019;SDS011;1014;51.960;8.542;2023-11-18T02:06:39;86.00;;;46.35;;
2019;SDS011;1014;51.960;8.542;2023-11-18T02:09:06;73.63;;;44.35;;
2019;SDS011;1014;51.960;8.542;2023-11-18T02:11:36;66.77;;;43.90;;
2019;SDS011;1014;51.960;8.542;2023-11-18T02:14:06;65.78;;;42.63;;
2019;SDS011;1014;51.960;8.542;2023-11-18T02:16:35;66.27;;;40.33;;
2019;SDS011;1014;51.960;8.542;2023-11-18T02:19:03;60.85;;;40.10;;
2019;SDS011;1014;51.960;8.542;2023-11-18T02:21:33;68.72;;;43.50;;
2019;SDS011;1014;51.960;8.542;2023-11-18T02:24:01;68.50;;;43.33;;
2019;SDS011;1014;51.960;8.542;2023-11-18T02:26:30;84.45;;;43.35;;
2019;SDS011;1014;51.960;8.542;2023-11-18T02:28:57;89.80;;;42.08;;
2019;SDS011;1014;51.960;8.542;2023-11-18T02:31:27;70.40;;;44.20;;
2019;SDS011;1014;51.960;8.542;2023-11-18T02:33:59;76.65;;;42.67;;
2019;SDS011;1014;51.960;8.542;2023-11-18T02:36:30;61.40;;;38.65;;
2019;SDS011;1014;51.960;8.542;2023-11-18T02:39:01;72.82;;;43.03;;
2019;SDS011;1014;51.960;8.542;2023-11-18T02:41:35;80.85;;;42.65;;
2019;SDS011;1014;51.960;8.542;2023-11-18T02:44:04;66.05;;;39.25;;
2019;SDS011;1014;51.960;8.542;2023-11-18T02:46:35;93.80;;;44.80;;
2019;SDS011;1014;51.960;8.542;2023-11-18T02:49:03;114.55;;;45.95;;
2019;SDS011;1014;51.960;8.542;2023-11-18T02:51:30;66.38;;;40.50;;
2019;SDS011;1014;51.960;8.542;2023-11-18T02:53:58;70.95;;;42.47;;
2019;SDS011;1014;51.960;8.542;2023-11-18T02:56:26;102.63;;;41.97;;
2019;SDS011;1014;51.960;8.542;2023-11-18T02:58:54;80.05;;;42.65;;
2019;SDS011;1014;51.960;8.542;2023-11-18T03:01:21;88.15;;;40.08;;
2019;SDS011;1014;51.960;8.542;2023-11-18T03:03:50;86.60;;;43.07;;
2019;SDS011;1014;51.960;8.542;2023-11-18T03:06:17;70.88;;;40.17;;
2019;SDS011;1014;51.960;8.542;2023-11-18T03:08:44;58.17;;;40.10;;
2019;SDS011;1014;51.960;8.542;2023-11-18T03:11:11;92.90;;;42.28;;
2019;SDS011;1014;51.960;8.542;2023-11-18T03:13:38;120.45;;;41.92;;
2019;SDS011;1014;51.960;8.542;2023-11-18T03:16:07;96.80;;;41.75;;
2019;SDS011;1014;51.960;8.542;2023-11-18T03:18:36;99.32;;;41.97;;
2019;SDS011;1014;51.960;8.542;2023-11-18T03:21:04;103.47;;;44.47;;
2019;SDS011;1014;51.960;8.542;2023-11-18T03:23:32;108.70;;;45.40;;
2019;SDS011;1014;51.960;8.542;2023-11-18T03:25:59;72.55;;;42.95;;
2019;SDS011;1014;51.960;8.542;2023-11-18T03:28:26;72.57;;;41.50;;
2019;SDS011;1014;51.960;8.542;2023-11-18T03:30:53;62.92;;;40.47;;
2019;SDS011;1014;51.960;8.542;2023-11-18T03:33:22;63.47;;;39.00;;
2019;SDS011;1014;51.960;8.542;2023-11-18T03:35:49;84.03;;;43.60;;
2019;SDS011;1014;51.960;8.542;2023-11-18T03:38:16;69.32;;;39.67;;
2019;SDS011;1014;51.960;8.542;2023-11-18T03:40:43;82.05;;;40.80;;
2019;SDS011;1014;51.960;8.542;2023-11-18T03:43:11;77.22;;;39.85;;
2019;SDS011;1014;51.960;8.542;2023-11-18T03:45:38;79.82;;;37.50;;
2019;SDS011;1014;51.960;8.542;2023-11-18T03:48:06;73.07;;;39.70;;
2019;SDS011;1014;51.960;8.542;2023-11-18T03:50:34;46.10;;;37.92;;
2019;SDS011;1014;51.960;8.542;2023-11-18T03:53:01;59.03;;;36.55;;
2019;SDS011;1014;51.960;8.542;2023-11-18T03:55:28;45.58;;;35.72;;
2019;SDS011;1014;51.960;8.542;2023-11-18T03:57:56;55.30;;;39.13;;
2019;SDS011;1014;51.960;8.542;2023-11-18T04:00:23;51.05;;;37.05;;
2019;SDS011;1014;51.960;8.542;2023-11-18T04:02:54;40.40;;;36.10;;
2019;SDS011;1014;51.960;8.542;2023-11-18T04:05:22;44.47;;;36.55;;
2019;SDS011;1014;51.960;8.542;2023-11-18T04:07:50;42.00;;;36.45;;
2019;SDS011;1014;51.960;8.542;2023-11-18T04:10:17;47.90;;;36.80;;
2019;SDS011;1014;51.960;8.542;2023-11-18T04:12:45;44.38;;;37.85;;
2019;SDS011;1014;51.960;8.542;2023-11-18T04:15:13;48.17;;;37.30;;
2019;SDS011;1014;51.960;8.542;2023-11-18T04:17:40;41.17;;;36.92;;
2019;SDS011;1014;51.960;8.542;2023-11-18T04:20:09;43.70;;;37.33;;
2019;SDS011;1014;51.960;8.542;2023-11-18T04:22:37;41.63;;;37.00;;
2019;SDS011;1014;51.960;8.542;2023-11-18T04:25:06;39.92;;;35.55;;
2019;SDS011;1014;51.960;8.542;2023-11-18T04:27:33;47.75;;;36.88;;
2019;SDS011;1014;51.960;8.542;2023-11-18T04:30:00;41.78;;;37.35;;
2019;SDS011;1014;51.960;8.542;2023-11-18T04:32:27;41.13;;;36.60;;
2019;SDS011;1014;51.960;8.542;2023-11-18T04:34:57;42.08;;;37.67;;
2019;SDS011;1014;51.960;8.542;2023-11-18T04:37:24;43.65;;;36.45;;
2019;SDS011;1014;51.960;8.542;2023-11-18T04:39:51;41.72;;;37.03;;
2019;SDS011;1014;51.960;8.542;2023-11-18T04:42:21;49.92;;;38.53;;
2019;SDS011;1014;51.960;8.542;2023-11-18T04:44:48;39.92;;;35.90;;
2019;SDS011;1014;51.960;8.542;2023-11-18T04:47:16;41.80;;;35.30;;
2019;SDS011;1014;51.960;8.542;2023-11-18T04:49:45;41.35;;;36.60;;
2019;SDS011;1014;51.960;8.542;2023-11-18T04:52:12;47.35;;;37.70;;
2019;SDS011;1014;51.960;8.542;2023-11-18T04:54:39;43.80;;;36.92;;
2019;SDS011;1014;51.960;8.542;2023-11-18T04:57:06;51.38;;;37.53;;
2019;SDS011;1014;51.960;8.542;2023-11-18T04:59:36;49.55;;;37.90;;
2019;SDS011;1014;51.960;8.542;2023-11-18T05:02:03;45.22;;;36.47;;
2019;SDS011;1014;51.960;8.542;2023-11-18T05:04:31;48.35;;;37.90;;
2019;SDS011;1014;51.960;8.542;2023-11-18T05:06:58;54.28;;;36.67;;
2019;SDS011;1014;51.960;8.542;2023-11-18T05:09:25;44.10;;;38.47;;
2019;SDS011;1014;51.960;8.542;2023-11-18T05:11:52;43.88;;;37.40;;
2019;SDS011;1014;51.960;8.542;2023-11-18T05:14:20;42.88;;;36.03;;
2019;SDS011;1014;51.960;8.542;2023-11-18T05:16:48;44.28;;;38.20;;
2019;SDS011;1014;51.960;8.542;2023-11-18T05:19:15;44.67;;;35.75;;
2019;SDS011;1014;51.960;8.542;2023-11-18T05:21:42;44.42;;;36.38;;
2019;SDS011;1014;51.960;8.542;2023-11-18T05:24:14;45.08;;;36.75;;
2019;SDS011;1014;51.960;8.542;2023-11-18T05:26:41;45.53;;;35.60;;
2019;SDS011;1014;51.960;8.542;2023-11-18T05:29:08;43.35;;;37.58;;
2019;SDS011;1014;51.960;8.542;2023-11-18T05:31:36;45.30;;;38.05;;
2019;SDS011;1014;51.960;8.542;2023-11-18T05:34:05;43.55;;;36.47;;
2019;SDS011;1014;51.960;8.542;2023-11-18T05:36:32;41.20;;;36.55;;
2019;SDS011;1014;51.960;8.542;2023-11-18T05:39:02;42.28;;;36.17;;
2019;SDS011;1014;51.960;8.542;2023-11-18T05:41:30;41.67;;;35.50;;
2019;SDS011;1014;51.960;8.542;2023-11-18T05:44:00;42.03;;;37.72;;
2019;SDS011;1014;51.960;8.542;2023-11-18T05:46:27;42.97;;;36.28;;
2019;SDS011;1014;51.960;8.542;2023-11-18T05:48:55;41.00;;;35.20;;
2019;SDS011;1014;51.960;8.542;2023-11-18T05:51:24;49.00;;;38.33;;
2019;SDS011;1014;51.960;8.542;2023-11-18T05:53:51;41.38;;;35.25;;
2019;SDS011;1014;51.960;8.542;2023-11-18T05:56:18;42.40;;;37.45;;
2019;SDS011;1014;51.960;8.542;2023-11-18T05:58:47;44.38;;;36.25;;
2019;SDS011;1014;51.960;8.542;2023-11-18T06:01:14;37.03;;;32.92;;
2019;SDS011;1014;51.960;8.542;2023-11-18T06:03:42;40.13;;;34.75;;
2019;SDS011;1014;51.960;8.542;2023-11-18T06:06:11;40.40;;;34.20;;
2019;SDS011;1014;51.960;8.542;2023-11-18T06:08:40;44.83;;;36.17;;
2019;SDS011;1014;51.960;8.542;2023-11-18T06:11:08;40.67;;;35.33;;
2019;SDS011;1014;51.960;8.542;2023-11-18T06:13:39;38.15;;;33.85;;
2019;SDS011;1014;51.960;8.542;2023-11-18T06:16:09;42.28;;;35.78;;
2019;SDS011;1014;51.960;8.542;2023-11-18T06:18:39;38.92;;;35.08;;
2019;SDS011;1014;51.960;8.542;2023-11-18T06:21:06;39.20;;;34.72;;
2019;SDS011;1014;51.960;8.542;2023-11-18T06:23:33;36.72;;;33.17;;
2019;SDS011;1014;51.960;8.542;2023-11-18T06:26:02;43.47;;;33.10;;
2019;SDS011;1014;51.960;8.542;2023-11-18T06:28:29;38.28;;;34.25;;
2019;SDS011;1014;51.960;8.542;2023-11-18T06:30:57;38.05;;;33.78;;
2019;SDS011;1014;51.960;8.542;2023-11-18T06:33:24;39.00;;;33.65;;
2019;SDS011;1014;51.960;8.542;2023-11-18T06:35:52;39.05;;;34.95;;
2019;SDS011;1014;51.960;8.542;2023-11-18T06:38:21;40.35;;;33.90;;
2019;SDS011;1014;51.960;8.542;2023-11-18T06:40:49;38.85;;;34.72;;
2019;SDS011;1014;51.960;8.542;2023-11-18T06:43:19;42.17;;;35.55;;
2019;SDS011;1014;51.960;8.542;2023-11-18T06:45:46;36.85;;;33.22;;
2019;SDS011;1014;51.960;8.542;2023-11-18T06:48:14;36.97;;;33.13;;
2019;SDS011;1014;51.960;8.542;2023-11-18T06:50:45;39.00;;;34.67;;
2019;SDS011;1014;51.960;8.542;2023-11-18T06:53:12;39.10;;;34.80;;
2019;SDS011;1014;51.960;8.542;2023-11-18T06:55:40;38.20;;;34.25;;
2019;SDS011;1014;51.960;8.542;2023-11-18T06:58:07;37.92;;;33.78;;
2019;SDS011;1014;51.960;8.542;2023-11-18T07:00:35;39.20;;;35.05;;
2019;SDS011;1014;51.960;8.542;2023-11-18T07:03:03;37.25;;;33.05;;
2019;SDS011;1014;51.960;8.542;2023-11-18T07:05:30;40.47;;;34.55;;
2019;SDS011;1014;51.960;8.542;2023-11-18T07:07:57;40.38;;;33.00;;
2019;SDS011;1014;51.960;8.542;2023-11-18T07:10:24;37.65;;;33.22;;
2019;SDS011;1014;51.960;8.542;2023-11-18T07:12:52;36.38;;;32.70;;
2019;SDS011;1014;51.960;8.542;2023-11-18T07:15:19;38.33;;;33.50;;
2019;SDS011;1014;51.960;8.542;2023-11-18T07:17:48;42.75;;;36.25;;
2019;SDS011;1014;51.960;8.542;2023-11-18T07:20:16;37.85;;;33.83;;
2019;SDS011;1014;51.960;8.542;2023-11-18T07:22:43;39.10;;;34.95;;
2019;SDS011;1014;51.960;8.542;2023-11-18T07:25:10;36.20;;;32.35;;
2019;SDS011;1014;51.960;8.542;2023-11-18T07:27:37;36.90;;;32.95;;
2019;SDS011;1014;51.960;8.542;2023-11-18T07:30:05;39.95;;;34.20;;
2019;SDS011;1014;51.960;8.542;2023-11-18T07:32:33;36.45;;;32.75;;
2019;SDS011;1014;51.960;8.542;2023-11-18T07:35:02;38.03;;;33.95;;
2019;SDS011;1014;51.960;8.542;2023-11-18T07:37:33;35.92;;;30.75;;
2019;SDS011;1014;51.960;8.542;2023-11-18T07:40:02;37.83;;;33.90;;
2019;SDS011;1014;51.960;8.542;2023-11-18T07:42:30;34.95;;;31.55;;
2019;SDS011;1014;51.960;8.542;2023-11-18T07:44:59;35.80;;;32.20;;
2019;SDS011;1014;51.960;8.542;2023-11-18T07:47:28;36.47;;;32.00;;
2019;SDS011;1014;51.960;8.542;2023-11-18T07:49:57;37.13;;;33.30;;
2019;SDS011;1014;51.960;8.542;2023-11-18T07:52:25;34.88;;;31.63;;
2019;SDS011;1014;51.960;8.542;2023-11-18T07:54:54;35.72;;;32.33;;
2019;SDS011;1014;51.960;8.542;2023-11-18T07:57:21;34.75;;;31.25;;
2019;SDS011;1014;51.960;8.542;2023-11-18T07:59:49;35.63;;;30.85;;
2019;SDS011;1014;51.960;8.542;2023-11-18T08:02:17;32.47;;;29.17;;
2019;SDS011;1014;51.960;8.542;2023-11-18T08:04:45;32.95;;;29.67;;
2019;SDS011;1014;51.960;8.542;2023-11-18T08:07:12;31.90;;;28.52;;
2019;SDS011;1014;51.960;8.542;2023-11-18T08:09:40;32.97;;;29.95;;
2019;SDS011;1014;51.960;8.542;2023-11-18T08:12:08;30.85;;;27.65;;
2019;SDS011;1014;51.960;8.542;2023-11-18T08:14:35;31.05;;;27.98;;
2019;SDS011;1014;51.960;8.542;2023-11-18T08:17:02;31.92;;;29.02;;
2019;SDS011;1014;51.960;8.542;2023-11-18T08:19:30;30.00;;;27.25;;
2019;SDS011;1014;51.960;8.542;2023-11-18T08:21:59;31.17;;;28.48;;
2019;SDS011;1014;51.960;8.542;2023-11-18T08:24:26;31.40;;;28.60;;
2019;SDS011;1014;51.960;8.542;2023-11-18T08:26:55;29.05;;;26.45;;
2019;SDS011;1014;51.960;8.542;2023-11-18T08:29:22;29.65;;;26.85;;
2019;SDS011;1014;51.960;8.542;2023-11-18T08:31:56;27.52;;;25.42;;
2019;SDS011;1014;51.960;8.542;2023-11-18T08:34:23;27.73;;;25.30;;
2019;SDS011;1014;51.960;8.542;2023-11-18T08:36:50;27.58;;;25.48;;
2019;SDS011;1014;51.960;8.542;2023-11-18T08:39:18;29.45;;;27.00;;
2019;SDS011;1014;51.960;8.542;2023-11-18T08:41:45;27.23;;;24.80;;
2019;SDS011;1014;51.960;8.542;2023-11-18T08:44:17;29.63;;;27.17;;
2019;SDS011;1014;51.960;8.542;2023-11-18T08:46:44;34.22;;;30.92;;
2019;SDS011;1014;51.960;8.542;2023-11-18T08:49:11;32.17;;;29.47;;
2019;SDS011;1014;51.960;8.542;2023-11-18T08:51:38;28.75;;;26.25;;
2019;SDS011;1014;51.960;8.542;2023-11-18T08:54:07;28.92;;;26.27;;
2019;SDS011;1014;51.960;8.542;2023-11-18T08:56:47;27.17;;;24.75;;
2019;SDS011;1014;51.960;8.542;2023-11-18T08:59:17;27.13;;;24.80;;
2019;SDS011;1014;51.960;8.542;2023-11-18T09:01:45;27.65;;;25.45;;
2019;SDS011;1014;51.960;8.542;2023-11-18T09:04:14;26.85;;;24.73;;
2019;SDS011;1014;51.960;8.542;2023-11-18T09:06:44;28.05;;;25.65;;
2019;SDS011;1014;51.960;8.542;2023-11-18T09:09:13;25.70;;;23.77;;
2019;SDS011;1014;51.960;8.542;2023-11-18T09:11:40;26.45;;;23.88;;
2019;SDS011;1014;51.960;8.542;2023-11-18T09:14:08;24.33;;;22.60;;
2019;SDS011;1014;51.960;8.542;2023-11-18T09:16:37;25.00;;;22.92;;
2019;SDS011;1014;51.960;8.542;2023-11-18T09:19:06;25.13;;;22.95;;
2019;SDS011;1014;51.960;8.542;2023-11-18T09:21:34;24.15;;;22.15;;
2019;SDS011;1014;51.960;8.542;2023-11-18T09:24:01;24.80;;;23.10;;
2019;SDS011;1014;51.960;8.542;2023-11-18T09:26:33;23.25;;;21.55;;
2019;SDS011;1014;51.960;8.542;2023-11-18T09:29:00;24.95;;;22.85;;
2019;SDS011;1014;51.960;8.542;2023-11-18T09:31:27;24.42;;;22.70;;
2019;SDS011;1014;51.960;8.542;2023-11-18T09:33:57;23.97;;;22.17;;
2019;SDS011;1014;51.960;8.542;2023-11-18T09:36:25;24.05;;;22.27;;
2019;SDS011;1014;51.960;8.542;2023-11-18T09:38:53;23.17;;;21.67;;
2019;SDS011;1014;51.960;8.542;2023-11-18T09:41:22;24.58;;;22.77;;
2019;SDS011;1014;51.960;8.542;2023-11-18T09:43:52;24.05;;;22.45;;
2019;SDS011;1014;51.960;8.542;2023-11-18T09:46:22;24.23;;;22.52;;
2019;SDS011;1014;51.960;8.542;2023-11-18T09:48:50;26.00;;;23.80;;
2019;SDS011;1014;51.960;8.542;2023-11-18T09:51:21;24.27;;;22.50;;
2019;SDS011;1014;51.960;8.542;2023-11-18T09:53:49;25.75;;;23.92;;
2019;SDS011;1014;51.960;8.542;2023-11-18T09:56:18;25.33;;;23.40;;
2019;SDS011;1014;51.960;8.542;2023-11-18T09:58:54;26.23;;;24.33;;
2019;SDS011;1014;51.960;8.542;2023-11-18T10:01:24;25.63;;;23.92;;
2019;SDS011;1014;51.960;8.542;2023-11-18T10:03:58;25.10;;;23.43;;
2019;SDS011;1014;51.960;8.542;2023-11-18T10:06:26;26.48;;;24.45;;
2019;SDS011;1014;51.960;8.542;2023-11-18T10:08:59;24.90;;;23.30;;
2019;SDS011;1014;51.960;8.542;2023-11-18T10:11:40;26.20;;;24.30;;
2019;SDS011;1014;51.960;8.542;2023-11-18T10:14:07;24.90;;;23.10;;
2019;SDS011;1014;51.960;8.542;2023-11-18T10:16:35;25.80;;;23.87;;
2019;SDS011;1014;51.960;8.542;2023-11-18T10:19:03;26.00;;;24.20;;
2019;SDS011;1014;51.960;8.542;2023-11-18T10:21:35;25.70;;;23.93;;
2019;SDS011;1014;51.960;8.542;2023-11-18T10:24:05;25.27;;;23.27;;
2019;SDS011;1014;51.960;8.542;2023-11-18T10:26:39;26.43;;;24.40;;
2019;SDS011;1014;51.960;8.542;2023-11-18T10:29:06;26.10;;;24.10;;
2019;SDS011;1014;51.960;8.542;2023-11-18T10:31:33;26.70;;;24.50;;
2019;SDS011;1014;51.960;8.542;2023-11-18T10:34:01;25.30;;;23.57;;
2019;SDS011;1014;51.960;8.542;2023-11-18T10:36:29;26.53;;;24.63;;
2019;SDS011;1014;51.960;8.542;2023-11-18T10:38:59;24.42;;;22.83;;
2019;SDS011;1014;51.960;8.542;2023-11-18T10:41:39;25.10;;;23.33;;
2019;SDS011;1014;51.960;8.542;2023-11-18T10:44:07;26.27;;;24.37;;
2019;SDS011;1014;51.960;8.542;2023-11-18T10:46:39;24.08;;;22.30;;
2019;SDS011;1014;51.960;8.542;2023-11-18T10:49:06;25.57;;;23.70;;
2019;SDS011;1014;51.960;8.542;2023-11-18T10:51:35;25.23;;;23.53;;
2019;SDS011;1014;51.960;8.542;2023-11-18T10:54:05;25.10;;;23.38;;
2019;SDS011;1014;51.960;8.542;2023-11-18T10:56:45;25.03;;;23.33;;
2019;SDS011;1014;51.960;8.542;2023-11-18T10:59:12;26.33;;;24.33;;
2019;SDS011;1014;51.960;8.542;2023-11-18T11:01:41;25.57;;;23.90;;
2019;SDS011;1014;51.960;8.542;2023-11-18T11:04:08;24.65;;;22.85;;
2019;SDS011;1014;51.960;8.542;2023-11-18T11:06:39;24.90;;;23.17;;
2019;SDS011;1014;51.960;8.542;2023-11-18T11:09:08;25.13;;;23.27;;
2019;SDS011;1014;51.960;8.542;2023-11-18T11:11:44;25.87;;;24.07;;
2019;SDS011;1014;51.960;8.542;2023-11-18T11:14:12;24.83;;;22.93;;
2019;SDS011;1014;51.960;8.542;2023-11-18T11:16:45;24.30;;;22.70;;
2019;SDS011;1014;51.960;8.542;2023-11-18T11:19:16;24.53;;;22.97;;
2019;SDS011;1014;51.960;8.542;2023-11-18T11:21:52;24.60;;;23.00;;
2019;SDS011;1014;51.960;8.542;2023-11-18T11:24:23;24.40;;;22.80;;
2019;SDS011;1014;51.960;8.542;2023-11-18T11:27:02;25.17;;;23.47;;
2019;SDS011;1014;51.960;8.542;2023-11-18T11:29:35;24.37;;;22.87;;
2019;SDS011;1014;51.960;8.542;2023-11-18T11:32:06;24.83;;;23.07;;
2019;SDS011;1014;51.960;8.542;2023-11-18T11:34:39;25.07;;;23.20;;
2019;SDS011;1014;51.960;8.542;2023-11-18T11:37:07;24.77;;;22.97;;
2019;SDS011;1014;51.960;8.542;2023-11-18T11:39:36;24.47;;;22.83;;
2019;SDS011;1014;51.960;8.542;2023-11-18T11:42:11;23.27;;;21.77;;
2019;SDS011;1014;51.960;8.542;2023-11-18T11:44:39;22.80;;;21.20;;
2019;SDS011;1014;51.960;8.542;2023-11-18T11:47:07;24.23;;;22.30;;
2019;SDS011;1014;51.960;8.542;2023-11-18T11:49:41;24.03;;;22.33;;
2019;SDS011;1014;51.960;8.542;2023-11-18T11:52:14;23.40;;;21.90;;
2019;SDS011;1014;51.960;8.542;2023-11-18T11:54:46;25.23;;;23.17;;
2019;SDS011;1014;51.960;8.542;2023-11-18T11:57:15;25.47;;;23.17;;
2019;SDS011;1014;51.960;8.542;2023-11-18T11:59:55;24.67;;;22.90;;
2019;SDS011;1014;51.960;8.542;2023-11-18T12:02:23;24.90;;;23.03;;
2019;SDS011;1014;51.960;8.542;2023-11-18T12:04:51;25.30;;;23.70;;
2019;SDS011;1014;51.960;8.542;2023-11-18T12:07:19;25.00;;;23.33;;
2019;SDS011;1014;51.960;8.542;2023-11-18T12:09:49;24.50;;;22.70;;
2019;SDS011;1014;51.960;8.542;2023-11-18T12:12:19;24.40;;;22.87;;
2019;SDS011;1014;51.960;8.542;2023-11-18T12:14:49;24.83;;;23.33;;
2019;SDS011;1014;51.960;8.542;2023-11-18T12:17:21;25.10;;;22.83;;
2019;SDS011;1014;51.960;8.542;2023-11-18T12:19:49;25.03;;;23.23;;
2019;SDS011;1014;51.960;8.542;2023-11-18T12:22:23;25.23;;;23.40;;
2019;SDS011;1014;51.960;8.542;2023-11-18T12:27:56;25.03;;;23.13;;
2019;SDS011;1014;51.960;8.542;2023-11-18T12:41:53;26.60;;;24.50;;
2019;SDS011;1014;51.960;8.542;2023-11-18T12:44:28;27.47;;;25.23;;
2019;SDS011;1014;51.960;8.542;2023-11-18T12:46:58;27.30;;;25.23;;
2019;SDS011;1014;51.960;8.542;2023-11-18T12:49:36;26.07;;;24.20;;
2019;SDS011;1014;51.960;8.542;2023-11-18T12:52:06;24.02;;;22.33;;
2019;SDS011;1014;51.960;8.542;2023-11-18T12:54:34;25.88;;;24.13;;
2019;SDS011;1014;51.960;8.542;2023-11-18T12:57:02;26.40;;;23.98;;
2019;SDS011;1014;51.960;8.542;2023-11-18T12:59:33;25.50;;;23.70;;
2019;SDS011;1014;51.960;8.542;2023-11-18T13:02:01;25.27;;;23.57;;
2019;SDS011;1014;51.960;8.542;2023-11-18T13:04:29;26.30;;;24.40;;
2019;SDS011;1014;51.960;8.542;2023-11-18T13:06:56;25.70;;;23.70;;
2019;SDS011;1014;51.960;8.542;2023-11-18T13:09:25;26.30;;;24.40;;
2019;SDS011;1014;51.960;8.542;2023-11-18T13:11:56;28.67;;;26.20;;
2019;SDS011;1014;51.960;8.542;2023-11-18T13:14:23;26.67;;;24.70;;
2019;SDS011;1014;51.960;8.542;2023-11-18T13:16:53;28.90;;;26.83;;
2019;SDS011;1014;51.960;8.542;2023-11-18T13:19:24;27.50;;;25.50;;
2019;SDS011;1014;51.960;8.542;2023-11-18T13:21:51;25.07;;;23.27;;
2019;SDS011;1014;51.960;8.542;2023-11-18T13:24:19;27.97;;;25.80;;
2019;SDS011;1014;51.960;8.542;2023-11-18T13:26:47;23.80;;;22.10;;
2019;SDS011;1014;51.960;8.542;2023-11-18T13:29:15;26.07;;;23.97;;
2019;SDS011;1014;51.960;8.542;2023-11-18T13:31:42;27.40;;;25.50;;
2019;SDS011;1014;51.960;8.542;2023-11-18T13:34:11;26.00;;;24.20;;
2019;SDS011;1014;51.960;8.542;2023-11-18T13:36:38;25.77;;;23.60;;
2019;SDS011;1014;51.960;8.542;2023-11-18T13:39:05;24.87;;;23.17;;
2019;SDS011;1014;51.960;8.542;2023-11-18T13:41:34;24.50;;;22.90;;
2019;SDS011;1014;51.960;8.542;2023-11-18T13:44:01;24.83;;;23.13;;
2019;SDS011;1014;51.960;8.542;2023-11-18T13:46:28;25.58;;;23.77;;
2019;SDS011;1014;51.960;8.542;2023-11-18T13:48:56;26.03;;;23.87;;
2019;SDS011;1014;51.960;8.542;2023-11-18T13:51:26;24.63;;;22.83;;
2019;SDS011;1014;51.960;8.542;2023-11-18T13:53:54;29.67;;;27.20;;
2019;SDS011;1014;51.960;8.542;2023-11-18T13:56:22;33.97;;;30.77;;
2019;SDS011;1014;51.960;8.542;2023-11-18T13:58:49;25.90;;;23.70;;
2019;SDS011;1014;51.960;8.542;2023-11-18T14:01:16;24.95;;;23.23;;
2019;SDS011;1014;51.960;8.542;2023-11-18T14:03:43;24.70;;;22.93;;
2019;SDS011;1014;51.960;8.542;2023-11-18T14:06:12;25.23;;;23.53;;
2019;SDS011;1014;51.960;8.542;2023-11-18T14:08:43;23.30;;;21.60;;
2019;SDS011;1014;51.960;8.542;2023-11-18T14:11:10;25.23;;;23.33;;
2019;SDS011;1014;51.960;8.542;2023-11-18T14:13:37;27.70;;;25.80;;
2019;SDS011;1014;51.960;8.542;2023-11-18T14:16:05;27.43;;;25.53;;
2019;SDS011;1014;51.960;8.542;2023-11-18T14:18:34;24.53;;;22.93;;
2019;SDS011;1014;51.960;8.542;2023-11-18T14:21:02;24.75;;;23.00;;
2019;SDS011;1014;51.960;8.542;2023-11-18T14:23:30;25.67;;;23.58;;
2019;SDS011;1014;51.960;8.542;2023-11-18T14:25:59;24.98;;;23.20;;
2019;SDS011;1014;51.960;8.542;2023-11-18T14:28:26;26.47;;;24.70;;
2019;SDS011;1014;51.960;8.542;2023-11-18T14:30:54;25.40;;;23.50;;
2019;SDS011;1014;51.960;8.542;2023-11-18T14:33:21;25.67;;;23.88;;
2019;SDS011;1014;51.960;8.542;2023-11-18T14:35:48;25.40;;;23.23;;
2019;SDS011;1014;51.960;8.542;2023-11-18T14:38:15;25.30;;;23.70;;
2019;SDS011;1014;51.960;8.542;2023-11-18T14:40:45;24.70;;;23.00;;
2019;SDS011;1014;51.960;8.542;2023-11-18T14:43:14;24.88;;;22.92;;
2019;SDS011;1014;51.960;8.542;2023-11-18T14:45:42;24.47;;;22.67;;
2019;SDS011;1014;51.960;8.542;2023-11-18T14:48:09;25.25;;;23.55;;
2019;SDS011;1014;51.960;8.542;2023-11-18T14:50:36;27.42;;;25.42;;
2019;SDS011;1014;51.960;8.542;2023-11-18T14:53:03;25.77;;;23.73;;
2019;SDS011;1014;51.960;8.542;2023-11-18T14:55:31;25.47;;;23.43;;
2019;SDS011;1014;51.960;8.542;2023-11-18T14:57:58;24.90;;;23.23;;
2019;SDS011;1014;51.960;8.542;2023-11-18T15:00:28;24.38;;;22.75;;
2019;SDS011;1014;51.960;8.542;2023-11-18T15:02:57;26.70;;;24.80;;
2019;SDS011;1014;51.960;8.542;2023-11-18T15:05:25;26.20;;;24.50;;
2019;SDS011;1014;51.960;8.542;2023-11-18T15:07:53;26.60;;;24.70;;
2019;SDS011;1014;51.960;8.542;2023-11-18T15:10:21;27.35;;;25.45;;